Time;durP1;ratioP1;P1;durP2;ratioP2;P2;SDS_P1;SDS_P2;PMS_P1;PMS_P2;Temp;Humidity;BMP_temperature;BMP_pressure;BME280_temperature;BME280_humidity;BME280_pressure;Samples;Min_cycle;Max_cycle;Signal;HPM_P1;HPM_P2
2022/08/18 00:02:02;;;;;;;6.60;3.20;;;;;;;18.89;80.14;98450.05;105112;1271;75740;-22
2022/08/18 00:04:31;;;;;;;5.80;3.10;;;;;;;18.51;81.59;98452.26;104758;1271;73277;-23
2022/08/18 00:07:08;;;;;;;4.80;2.10;;;;;;;18.25;82.82;98456.35;104585;1271;62649;-23
2022/08/18 00:09:36;;;;;;;6.20;2.10;;;;;;;18.64;82.23;98458.02;104872;1271;61088;-22
2022/08/18 00:12:08;;;;;;;5.90;2.40;;;;;;;19.05;80.19;98463.18;104840;1271;74712;-23
2022/08/18 00:14:36;;;;;;;8.80;3.10;;;;;;;19.04;79.92;98462.25;104843;1271;74036;-23
2022/08/18 00:17:03;;;;;;;6.70;3.80;;;;;;;18.79;80.47;98461.79;104955;1271;74486;-23
2022/08/18 00:19:31;;;;;;;5.70;4.10;;;;;;;18.46;81.37;98466.87;104961;1271;61035;-22
2022/08/18 00:22:16;;;;;;;5.40;3.30;;;;;;;18.17;82.73;98464.11;104876;1271;61817;-22
2022/08/18 00:24:46;;;;;;;4.50;2.60;;;;;;;18.48;81.83;98461.58;104756;1271;74359;-22
2022/08/18 00:27:20;;;;;;;3.30;2.90;;;;;;;18.74;80.32;98462.41;104931;1271;75876;-23
2022/08/18 00:29:50;;;;;;;4.40;3.40;;;;;;;18.67;80.70;98465.72;104770;1271;73264;-22
2022/08/18 00:32:28;;;;;;;6.10;3.30;;;;;;;18.47;81.30;98473.09;104766;1271;61887;-22
2022/08/18 00:34:56;;;;;;;4.80;3.30;;;;;;;18.22;82.17;98478.59;104870;1271;61842;-22
2022/08/18 00:37:23;;;;;;;2.50;2.10;;;;;;;18.03;83.13;98482.87;105052;1271;74767;-23
2022/08/18 00:39:51;;;;;;;7.20;3.80;;;;;;;18.44;82.68;98481.11;105077;1271;74825;-23
2022/08/18 00:42:24;;;;;;;5.10;3.30;;;;;;;18.87;80.82;98481.77;104751;1271;73035;-23
2022/08/18 00:45:00;;;;;;;10.60;3.00;;;;;;;18.85;80.43;98482.81;104801;1271;61098;-24
2022/08/18 00:47:28;;;;;;;4.00;2.40;;;;;;;18.64;80.68;98478.96;104773;1271;61392;-24
2022/08/18 00:50:16;;;;;;;3.70;2.40;;;;;;;18.34;81.50;98476.62;104952;1271;75259;-24
2022/08/18 00:52:45;;;;;;;4.50;1.90;;;;;;;18.10;82.50;98479.89;104922;1271;76180;-24
2022/08/18 00:55:12;;;;;;;3.90;1.80;;;;;;;18.46;82.08;98478.58;104849;1271;74300;-24
2022/08/18 00:57:41;;;;;;;5.00;2.50;;;;;;;18.78;79.89;98473.52;104864;1271;61140;-24
2022/08/18 01:00:13;;;;;;;5.40;2.50;;;;;;;18.59;80.23;98475.56;104977;1271;61159;-24
2022/08/18 01:02:43;;;;;;;8.90;3.20;;;;;;;18.29;81.48;98478.29;104913;1271;75840;-24
2022/08/18 01:05:15;;;;;;;4.90;2.90;;;;;;;18.10;82.51;98479.56;104684;1271;75027;-24
2022/08/18 01:07:44;;;;;;;3.80;2.30;;;;;;;17.91;83.25;98475.98;104744;1271;74264;-24
2022/08/18 01:10:16;;;;;;;5.80;2.50;;;;;;;18.30;83.10;98475.44;104879;1271;62072;-25
2022/08/18 01:12:50;;;;;;;5.30;2.80;;;;;;;18.66;81.43;98468.27;105111;1271;61202;-25
2022/08/18 01:15:18;;;;;;;3.80;2.40;;;;;;;18.59;81.26;98471.66;104861;1272;75343;-25
2022/08/18 01:23:36;;;;;;;4.40;2.60;;;;;;;17.73;85.14;98460.51;104834;1271;61726;-25
2022/08/18 01:26:03;;;;;;;5.40;2.90;;;;;;;18.13;83.95;98460.45;104987;1271;60996;-24
2022/08/18 01:28:37;;;;;;;4.30;2.60;;;;;;;18.42;82.26;98461.56;104945;1271;75515;-25
2022/08/18 01:31:04;;;;;;;2.80;2.50;;;;;;;18.32;82.05;98472.91;104838;1271;74352;-24
2022/08/18 01:33:35;;;;;;;6.30;2.40;;;;;;;18.10;82.66;98477.16;104955;1271;74456;-24
2022/08/18 01:36:15;;;;;;;3.50;2.70;;;;;;;17.82;82.68;98480.50;104808;1271;61936;-25
2022/08/18 01:38:49;;;;;;;6.00;2.50;;;;;;;17.54;85.22;98476.75;104884;1272;61028;-24
2022/08/18 01:41:20;;;;;;;5.10;2.80;;;;;;;17.97;85.31;98476.94;104783;1271;75576;-24
2022/08/18 01:43:54;;;;;;;4.90;2.70;;;;;;;18.40;83.34;98468.44;104688;1271;76033;-24
2022/08/18 01:46:22;;;;;;;3.40;3.10;;;;;;;18.38;82.81;98469.46;104922;1271;74365;-24
2022/08/18 01:48:49;;;;;;;7.30;3.50;;;;;;;18.19;83.07;98467.60;104953;1271;61602;-24
2022/08/18 01:51:19;;;;;;;8.70;4.30;;;;;;;17.94;83.77;98472.57;104934;1271;61043;-24
2022/08/18 01:53:47;;;;;;;5.30;2.60;;;;;;;17.72;84.98;98474.23;104888;1271;75963;-24
2022/08/18 01:56:16;;;;;;;7.30;2.80;;;;;;;18.13;84.47;98468.43;104984;1271;77996;-24
2022/08/18 01:58:46;;;;;;;4.10;3.00;;;;;;;18.55;82.45;98463.90;104885;1271;74384;-25
2022/08/18 02:01:14;;;;;;;5.80;3.30;;;;;;;18.47;81.96;98466.66;104942;1271;61854;-25
2022/08/18 02:03:43;;;;;;;3.90;3.30;;;;;;;18.22;82.71;98467.71;104985;1271;61163;-24
2022/08/18 02:06:12;;;;;;;7.80;3.70;;;;;;;17.93;83.65;98465.35;104836;1274;75397;-24
2022/08/18 02:08:41;;;;;;;3.10;2.30;;;;;;;17.69;85.10;98461.89;104919;1270;75744;-24
2022/08/18 02:11:10;;;;;;;5.30;2.90;;;;;;;18.13;84.41;98461.70;105046;1271;73239;-24
2022/08/18 02:13:37;;;;;;;6.50;2.70;;;;;;;18.57;82.56;98457.38;104942;1269;62020;-25
2022/08/18 02:16:06;;;;;;;7.50;3.40;;;;;;;18.59;81.98;98458.23;105058;1271;62181;-24
2022/08/18 02:18:35;;;;;;;6.90;3.20;;;;;;;18.41;82.24;98454.51;105178;1271;75516;-25
2022/08/18 02:21:16;;;;;;;7.70;3.60;;;;;;;18.15;82.61;98457.33;105043;1271;76091;-24
2022/08/18 02:23:46;;;;;;;5.00;2.70;;;;;;;17.85;84.25;98459.31;104998;1272;74747;-24
2022/08/18 02:26:22;;;;;;;7.30;3.00;;;;;;;18.24;83.82;98455.52;104759;1271;61041;-25
2022/08/18 02:28:49;;;;;;;4.80;2.50;;;;;;;18.64;81.98;98455.63;104889;1272;61086;-24
2022/08/18 02:31:19;;;;;;;6.30;3.30;;;;;;;18.58;81.40;98459.33;104936;1271;75788;-24
2022/08/18 02:33:46;;;;;;;4.30;3.60;;;;;;;18.31;81.55;98464.15;104866;1271;74915;-24
2022/08/18 02:36:20;;;;;;;5.70;4.20;;;;;;;17.98;82.32;98464.88;105360;1270;74586;-24
2022/08/18 02:38:47;;;;;;;3.90;2.60;;;;;;;17.71;83.82;98462.27;105016;1271;62589;-24
2022/08/18 02:41:27;;;;;;;3.30;2.80;;;;;;;18.10;83.12;98461.98;104871;1271;61142;-24
2022/08/18 02:43:57;;;;;;;3.20;2.50;;;;;;;18.49;81.26;98461.05;104950;1271;75338;-24
2022/08/18 02:46:25;;;;;;;5.80;3.60;;;;;;;18.44;80.78;98461.21;104927;1271;75972;-24
2022/08/18 02:49:00;;;;;;;6.80;3.40;;;;;;;18.16;81.52;98464.14;105065;1271;73696;-24
2022/08/18 02:51:28;;;;;;;12.60;4.10;;;;;;;17.82;82.66;98461.54;105113;1271;61630;-24
2022/08/18 02:53:58;;;;;;;4.40;2.80;;;;;;;17.59;84.02;98456.56;105373;1271;61985;-24
2022/08/18 02:56:27;;;;;;;3.70;2.40;;;;;;;18.00;83.50;98453.92;104948;1271;75380;-24
2022/08/18 02:59:10;;;;;;;5.80;3.10;;;;;;;18.45;81.39;98454.86;104923;1271;74765;-24
2022/08/18 03:01:39;;;;;;;5.90;3.30;;;;;;;18.41;80.83;98454.17;104803;1272;73356;-24
2022/08/18 03:04:07;;;;;;;4.20;3.00;;;;;;;18.17;80.95;98459.44;104750;1272;61140;-24
2022/08/18 03:06:36;;;;;;;9.40;3.90;;;;;;;17.84;82.11;98468.21;104844;1271;61879;-24
2022/08/18 03:09:04;;;;;;;3.60;3.00;;;;;;;17.55;83.09;98469.60;104687;1271;75303;-24
2022/08/18 03:11:34;;;;;;;4.60;2.80;;;;;;;17.90;82.92;98471.96;104841;1271;74945;-24
2022/08/18 03:14:02;;;;;;;4.80;3.20;;;;;;;18.30;81.68;98472.55;104821;1271;74389;-24
2022/08/18 03:16:31;;;;;;;4.80;3.40;;;;;;;18.28;81.18;98473.69;104976;1271;61190;-24
2022/08/18 03:18:59;;;;;;;5.20;4.20;;;;;;;18.05;81.83;98476.01;105073;1271;61985;-24
2022/08/18 03:21:29;;;;;;;4.80;4.00;;;;;;;17.76;82.56;98479.98;105190;1272;75513;-24
2022/08/18 03:23:56;;;;;;;6.00;2.90;;;;;;;17.50;84.25;98476.70;105132;1271;75035;-24
2022/08/18 03:26:30;;;;;;;6.60;3.70;;;;;;;17.87;84.00;98478.62;105161;1271;74701;-25
2022/08/18 03:28:58;;;;;;;4.70;3.60;;;;;;;18.20;82.60;98478.04;105067;1272;60997;-24
2022/08/18 03:31:27;;;;;;;7.90;4.10;;;;;;;18.13;83.08;98480.64;105031;1271;61958;-24
2022/08/18 03:33:55;;;;;;;5.40;4.60;;;;;;;17.94;84.14;98481.98;104813;1272;74622;-24
2022/08/18 03:36:28;;;;;;;6.80;4.40;;;;;;;17.80;84.95;98483.91;104815;1272;76272;-24
2022/08/18 03:38:55;;;;;;;4.00;2.90;;;;;;;17.73;85.39;98488.08;104893;1271;73341;-24
2022/08/18 03:41:24;;;;;;;4.70;3.20;;;;;;;18.20;84.37;98486.79;104937;1271;62112;-24
2022/08/18 03:44:13;;;;;;;5.90;3.60;;;;;;;18.82;81.80;98485.51;104766;1271;61920;-24
2022/08/18 03:46:41;;;;;;;5.30;3.80;;;;;;;18.84;80.94;98485.55;104933;1271;75461;-24
2022/08/18 03:49:08;;;;;;;7.80;5.00;;;;;;;18.68;81.42;98494.82;104766;1271;75770;-24
2022/08/18 03:51:36;;;;;;;7.00;4.70;;;;;;;18.42;82.33;98495.30;104926;1271;74674;-24
2022/08/18 03:54:04;;;;;;;5.40;2.80;;;;;;;18.25;83.46;98496.33;105051;1271;62745;-25
2022/08/18 03:56:37;;;;;;;5.60;3.20;;;;;;;18.75;82.37;98497.34;104875;1271;61075;-25
2022/08/18 03:59:09;;;;;;;6.90;3.70;;;;;;;19.27;80.36;98500.50;104900;1271;75283;-25
2022/08/18 04:01:39;;;;;;;5.30;4.00;;;;;;;19.26;79.63;98503.63;104780;1272;75995;-25
2022/08/18 04:04:08;;;;;;;6.30;4.10;;;;;;;19.14;80.01;98506.43;104792;1272;74418;-25
2022/08/18 04:06:40;;;;;;;6.50;4.10;;;;;;;18.98;80.71;98509.45;104908;1271;61138;-25
2022/08/18 04:09:12;;;;;;;5.60;2.90;;;;;;;18.89;81.54;98514.73;104888;1271;61144;-25
2022/08/18 04:11:43;;;;;;;6.40;3.20;;;;;;;19.42;80.35;98517.63;104823;1271;75397;-24
2022/08/18 04:14:11;;;;;;;4.00;3.20;;;;;;;19.92;78.31;98518.86;104935;1271;75360;-25
2022/08/18 04:16:40;;;;;;;6.20;3.40;;;;;;;19.98;77.90;98520.92;104781;1271;73502;-25
2022/08/18 04:19:08;;;;;;;4.90;4.10;;;;;;;19.82;78.41;98519.27;104929;1271;61114;-24
2022/08/18 04:21:37;;;;;;;5.70;4.30;;;;;;;19.54;79.22;98521.59;104821;1274;61088;-24
2022/08/18 04:24:06;;;;;;;5.80;3.40;;;;;;;19.31;80.20;98526.76;104847;1270;76203;-24
2022/08/18 04:26:37;;;;;;;5.00;3.50;;;;;;;19.58;80.08;98525.29;104756;1271;75896;-24
2022/08/18 04:29:05;;;;;;;8.40;5.80;;;;;;;19.88;78.65;98525.84;104732;1274;73414;-25
2022/08/18 04:31:32;;;;;;;9.00;5.60;;;;;;;19.79;79.21;98525.34;104938;1271;61919;-24
2022/08/18 04:34:00;;;;;;;8.70;5.50;;;;;;;19.62;79.89;98530.88;104967;1271;61119;-25
2022/08/18 04:36:28;;;;;;;6.70;5.40;;;;;;;19.51;80.88;98527.41;104970;1271;75431;-24
2022/08/18 04:38:55;;;;;;;5.70;4.10;;;;;;;19.38;81.88;98528.58;104746;1271;74005;-26
2022/08/18 04:41:25;;;;;;;7.60;5.80;;;;;;;19.85;80.70;98532.59;104810;1271;74411;-25
2022/08/18 04:43:56;;;;;;;6.60;5.80;;;;;;;20.29;78.53;98526.59;104960;1271;61146;-24
2022/08/18 04:46:24;;;;;;;7.80;5.80;;;;;;;20.37;78.33;98528.99;104835;1272;61912;-24
2022/08/18 04:48:57;;;;;;;7.90;6.00;;;;;;;20.18;78.53;98527.23;105181;1271;74460;-26
2022/08/18 04:51:27;;;;;;;7.90;5.30;;;;;;;19.96;79.82;98531.52;105408;1269;76414;-23
2022/08/18 04:54:14;;;;;;;7.10;3.80;;;;;;;19.90;80.78;98529.98;104934;1271;74359;-24
2022/08/18 04:56:42;;;;;;;5.90;4.30;;;;;;;20.47;80.02;98529.70;104996;1271;61578;-24
2022/08/18 04:59:11;;;;;;;9.50;4.60;;;;;;;21.04;77.44;98528.98;104689;1271;61928;-24
2022/08/18 05:01:40;;;;;;;8.60;4.90;;;;;;;21.23;76.93;98525.09;104809;1271;75507;-24
2022/08/18 05:04:07;;;;;;;10.40;5.80;;;;;;;21.33;77.11;98524.85;104785;1272;74896;-24
2022/08/18 05:06:37;;;;;;;10.50;5.80;;;;;;;21.33;76.38;98524.90;104935;1269;74368;-24
2022/08/18 05:09:06;;;;;;;6.50;4.00;;;;;;;21.34;76.48;98524.05;104879;1271;61568;-23
2022/08/18 05:11:34;;;;;;;5.90;4.50;;;;;;;21.92;75.29;98523.87;104797;1271;62025;-23
2022/08/18 05:14:04;;;;;;;4.90;4.10;;;;;;;22.39;72.92;98529.64;104906;1271;75707;-24
2022/08/18 05:16:35;;;;;;;8.20;4.80;;;;;;;22.52;72.36;98527.16;104853;1271;76047;-24
2022/08/18 05:19:15;;;;;;;6.50;5.10;;;;;;;22.46;71.61;98525.12;104904;1271;76065;-24
2022/08/18 05:21:45;;;;;;;6.90;4.70;;;;;;;22.37;72.97;98523.73;104878;1272;61102;-23
2022/08/18 05:24:17;;;;;;;12.30;6.00;;;;;;;21.96;73.74;98527.39;105158;1271;61136;-24
2022/08/18 05:26:45;;;;;;;7.90;5.40;;;;;;;22.16;73.58;98530.38;105154;1271;75380;-24
2022/08/18 05:29:12;;;;;;;6.80;3.40;;;;;;;22.25;74.09;98528.73;105175;1271;75951;-24
2022/08/18 05:31:48;;;;;;;7.60;4.30;;;;;;;22.90;72.18;98533.36;105148;1271;76070;-24
2022/08/18 05:34:15;;;;;;;4.80;4.10;;;;;;;23.53;70.81;98531.11;104960;1271;61874;-24
2022/08/18 05:36:49;;;;;;;7.90;5.10;;;;;;;23.68;69.59;98532.79;104942;1271;62058;-24
2022/08/18 05:39:16;;;;;;;9.20;5.60;;;;;;;23.55;69.93;98532.23;104915;1271;75826;-24
2022/08/18 05:41:53;;;;;;;9.70;5.20;;;;;;;23.43;69.07;98531.77;105226;1271;75961;-23
2022/08/18 05:44:28;;;;;;;8.00;5.00;;;;;;;23.33;69.30;98537.77;105369;1271;74431;-24
2022/08/18 05:47:03;;;;;;;7.30;4.90;;;;;;;23.14;70.65;98539.04;105078;1271;61106;-23
2022/08/18 05:49:31;;;;;;;6.80;5.30;;;;;;;23.00;70.74;98542.75;105008;1271;62201;-23
2022/08/18 05:52:00;;;;;;;7.70;5.70;;;;;;;22.79;71.76;98544.30;105033;1271;75485;-23
2022/08/18 05:57:20;;;;;;;9.00;4.70;;;;;;;22.89;71.07;98541.10;104808;1271;74549;-24
2022/08/18 05:59:47;;;;;;;8.30;5.50;;;;;;;22.97;70.89;98542.78;104973;1271;61124;-23
2022/08/18 06:02:16;;;;;;;6.70;5.40;;;;;;;23.59;70.36;98537.21;104884;1271;61940;-24
2022/08/18 06:04:56;;;;;;;8.30;5.30;;;;;;;23.20;71.43;98539.60;104907;1271;75384;-24
2022/08/18 06:07:45;;;;;;;13.90;5.10;;;;;;;23.14;71.29;98544.14;104901;1270;75970;-24
2022/08/18 06:10:12;;;;;;;7.90;6.40;;;;;;;22.83;71.84;98545.80;104858;1271;74405;-24
2022/08/18 06:12:45;;;;;;;8.80;5.10;;;;;;;22.80;73.10;98547.67;104975;1271;61146;-24
2022/08/18 06:15:30;;;;;;;6.70;4.40;;;;;;;22.84;72.75;98547.80;104881;1272;61913;-25
2022/08/18 06:18:12;;;;;;;10.60;4.40;;;;;;;23.50;71.83;98542.10;104943;1271;75466;-23
2022/08/18 06:21:19;;;;;;;6.40;4.40;;;;;;;23.90;70.15;98541.52;104902;1271;76024;-23
2022/08/18 06:24:04;;;;;;;9.00;4.90;;;;;;;23.89;69.15;98542.57;104761;1271;73868;-24
2022/08/18 06:26:40;;;;;;;8.90;5.00;;;;;;;23.53;70.51;98540.67;105017;1271;61134;-24
2022/08/18 06:29:34;;;;;;;12.00;5.10;;;;;;;23.73;71.96;98537.66;105136;1271;61795;-24
2022/08/18 06:32:19;;;;;;;9.10;5.40;;;;;;;23.74;70.57;98534.67;105266;1270;75600;-24
2022/08/18 06:35:10;;;;;;;20.50;8.20;;;;;;;23.68;71.98;98534.09;105398;1271;75998;-24
2022/08/18 06:40:42;;;;;;;7.70;4.40;;;;;;;23.71;72.83;98532.77;104849;1271;63518;-24
2022/08/18 06:43:12;;;;;;;8.20;5.10;;;;;;;24.40;69.94;98537.18;105001;1271;61112;-23
2022/08/18 06:45:40;;;;;;;18.90;8.80;;;;;;;24.64;67.40;98533.45;104854;1269;74746;-23
2022/08/18 06:48:13;;;;;;;25.50;12.90;;;;;;;23.70;69.75;98537.28;104872;1271;76184;-23
2022/08/18 06:50:52;;;;;;;11.80;6.00;;;;;;;24.16;70.29;98531.68;104897;1271;74454;-23
2022/08/18 06:53:19;;;;;;;8.90;5.80;;;;;;;23.79;69.81;98534.16;105137;1271;61029;-23
2022/08/18 06:55:55;;;;;;;11.70;6.50;;;;;;;23.91;70.20;98536.55;105162;1271;62278;-23
2022/08/18 06:58:29;;;;;;;10.80;6.60;;;;;;;23.90;70.08;98533.28;105111;1271;75146;-23
2022/08/18 07:00:59;;;;;;;9.40;6.10;;;;;;;23.88;70.25;98536.91;105108;1271;76142;-23
2022/08/18 07:03:35;;;;;;;15.80;8.00;;;;;;;23.73;71.29;98535.34;104949;1271;74235;-24
2022/08/18 07:06:05;;;;;;;8.40;4.30;;;;;;;24.06;71.12;98533.56;104912;1271;63041;-23
2022/08/18 07:08:38;;;;;;;10.30;4.40;;;;;;;24.95;68.30;98528.90;104884;1271;61176;-25
2022/08/18 07:11:13;;;;;;;8.30;4.50;;;;;;;25.21;67.04;98525.85;104923;1271;74298;-24
2022/08/18 07:13:43;;;;;;;12.50;6.10;;;;;;;25.57;66.02;98518.73;105001;1271;76073;-24
2022/08/18 07:16:15;;;;;;;8.10;5.20;;;;;;;25.19;66.67;98518.52;104950;1271;74193;-24
2022/08/18 07:18:47;;;;;;;8.30;5.60;;;;;;;24.82;68.34;98518.77;105053;1272;61114;-24
2022/08/18 07:21:25;;;;;;;12.10;5.90;;;;;;;24.49;68.70;98515.33;105146;1271;61930;-23
2022/08/18 07:24:18;;;;;;;7.30;4.70;;;;;;;24.20;69.14;98513.02;105117;1274;75364;-23
2022/08/18 07:26:59;;;;;;;8.40;5.70;;;;;;;24.13;69.48;98513.27;105067;1271;76179;-23
2022/08/18 07:29:27;;;;;;;47.80;28.80;;;;;;;24.14;69.92;98518.77;104925;1271;74336;-23
2022/08/18 07:31:54;;;;;;;34.90;16.10;;;;;;;24.22;69.01;98518.66;104886;1271;62111;-23
2022/08/18 07:34:36;;;;;;;28.70;17.30;;;;;;;23.96;68.52;98519.30;104675;1271;61504;-23
2022/08/18 07:37:07;;;;;;;15.80;8.70;;;;;;;24.24;69.07;98524.70;104770;1271;73598;-23
2022/08/18 07:40:00;;;;;;;41.30;26.80;;;;;;;24.07;68.17;98526.36;104890;1274;75882;-23
2022/08/18 07:42:34;;;;;;;25.10;14.20;;;;;;;23.88;67.09;98529.98;105186;1271;74300;-23
2022/08/18 07:45:39;;;;;;;;;;;;;;;23.86;68.32;98527.45;105193;1272;61981;-23
2022/08/18 07:48:09;;;;;;;21.40;11.70;;;;;;;23.88;67.85;98525.46;104882;1271;61875;-23
2022/08/18 07:51:08;;;;;;;11.90;6.60;;;;;;;23.88;68.52;98528.64;104843;1271;75613;-24
2022/08/18 07:54:03;;;;;;;9.10;5.60;;;;;;;24.13;67.94;98517.95;104837;1271;75794;-23
2022/08/18 07:56:41;;;;;;;8.60;5.90;;;;;;;23.91;67.65;98522.14;104869;1271;74322;-23
2022/08/18 07:59:15;;;;;;;11.70;7.90;;;;;;;23.90;68.24;98514.09;104893;1271;62069;-21
2022/08/18 08:01:48;;;;;;;11.10;6.10;;;;;;;24.12;67.03;98515.90;104782;1274;61883;-24
2022/08/18 08:04:35;;;;;;;9.10;5.90;;;;;;;24.02;67.79;98515.02;104879;1271;75370;-24
2022/08/18 08:07:09;;;;;;;8.30;5.40;;;;;;;24.61;66.98;98524.23;104964;1270;76083;-22
2022/08/18 08:10:26;;;;;;;9.30;5.20;;;;;;;24.77;65.60;98524.50;105077;1271;74874;-21
2022/08/18 08:13:09;;;;;;;14.50;7.70;;;;;;;24.77;64.69;98525.96;105209;1271;62379;-23
2022/08/18 08:16:02;;;;;;;9.70;5.20;;;;;;;25.02;64.73;98525.23;105092;1271;62208;-23
2022/08/18 08:19:14;;;;;;;15.00;5.50;;;;;;;25.28;62.97;98529.42;104833;1271;74966;-23
2022/08/18 08:22:14;;;;;;;9.00;5.70;;;;;;;25.21;63.62;98525.91;104667;1271;76084;-23
2022/08/18 08:24:51;;;;;;;7.90;4.60;;;;;;;25.16;64.13;98523.13;104857;1274;74201;-22
2022/08/18 08:27:42;;;;;;;11.00;5.70;;;;;;;25.65;62.81;98526.34;105139;1271;61214;-22
2022/08/18 08:30:20;;;;;;;7.80;5.30;;;;;;;25.21;62.48;98528.40;105031;1271;61919;-22
2022/08/18 08:33:06;;;;;;;11.30;6.40;;;;;;;25.67;62.23;98529.79;104751;1272;74491;-23
2022/08/18 08:35:43;;;;;;;41.50;22.80;;;;;;;26.02;61.80;98529.55;104836;1271;75921;-22
2022/08/18 08:38:19;;;;;;;11.50;6.30;;;;;;;25.83;60.31;98528.39;104963;1271;74358;-22
2022/08/18 08:41:24;;;;;;;9.10;5.00;;;;;;;26.33;60.61;98528.61;104663;1271;61154;-23
2022/08/18 08:44:00;;;;;;;38.50;19.40;;;;;;;26.37;60.05;98528.77;104950;1271;61227;-24
2022/08/18 08:46:29;;;;;;;14.10;8.00;;;;;;;26.02;59.35;98531.10;105049;1271;75578;-23
2022/08/18 08:49:21;;;;;;;14.40;7.90;;;;;;;25.88;60.25;98530.98;105091;1272;74817;-22
2022/08/18 08:51:55;;;;;;;15.40;6.30;;;;;;;26.62;58.79;98533.61;105217;1271;74659;-22
2022/08/18 08:54:34;;;;;;;14.90;7.60;;;;;;;26.54;57.91;98532.63;105061;1271;62033;-23
2022/08/18 08:57:02;;;;;;;30.40;13.80;;;;;;;26.22;58.80;98527.70;105128;1271;62216;-24
2022/08/18 08:59:30;;;;;;;17.70;8.70;;;;;;;26.16;59.63;98534.33;104914;1271;75712;-23
2022/08/18 09:02:09;;;;;;;18.40;9.60;;;;;;;26.99;58.88;98535.88;104977;1271;75879;-23
2022/08/18 09:04:50;;;;;;;38.90;18.40;;;;;;;27.38;56.92;98536.41;104805;1271;74422;-24
2022/08/18 09:08:06;;;;;;;71.40;34.00;;;;;;;27.26;56.31;98535.72;104766;1271;61931;-23
2022/08/18 09:10:33;;;;;;;18.50;8.40;;;;;;;27.30;55.02;98534.50;104857;1271;61022;-23
2022/08/18 09:13:06;;;;;;;33.60;15.40;;;;;;;27.01;55.78;98527.31;105099;1271;75568;-23
2022/08/18 09:16:01;;;;;;;29.70;14.90;;;;;;;26.79;55.71;98528.48;104952;1271;75800;-23
2022/08/18 09:18:42;;;;;;;21.90;11.60;;;;;;;26.87;54.76;98520.24;104050;1271;1471725;-24
2022/08/18 09:21:24;;;;;;;35.00;19.10;;;;;;;26.78;55.43;98519.45;105190;1271;61191;-23
2022/08/18 09:23:54;;;;;;;20.80;9.70;;;;;;;27.38;54.18;98518.28;104932;1271;61908;-24
2022/08/18 09:26:26;;;;;;;19.30;8.50;;;;;;;27.48;55.59;98520.02;104713;1274;75353;-24
2022/08/18 09:28:58;;;;;;;12.60;6.10;;;;;;;27.75;52.88;98516.54;104817;1271;76013;-23
2022/08/18 09:31:26;;;;;;;14.10;6.90;;;;;;;27.54;52.92;98523.90;104772;1274;74409;-23
2022/08/18 09:34:04;;;;;;;;;;;;;;;27.76;53.30;98524.25;104720;1271;62283;-23
2022/08/18 09:36:50;;;;;;;22.80;13.10;;;;;;;27.92;51.43;98519.13;104832;1271;61960;-24
2022/08/18 09:42:32;;;;;;;11.50;3.70;;;;;;;28.90;47.63;98517.12;105064;1271;77621;-23
2022/08/18 09:45:30;;;;;;;7.60;5.60;;;;;;;29.27;47.83;98521.23;105096;1271;74348;-23
2022/08/18 09:48:04;;;;;;;9.60;4.20;;;;;;;29.39;47.65;98526.38;104770;1272;61903;-23
2022/08/18 09:50:52;;;;;;;8.90;5.60;;;;;;;29.85;47.09;98526.82;105021;1270;62017;-24
2022/08/18 09:53:37;;;;;;;18.60;8.60;;;;;;;29.98;46.85;98528.27;105056;1271;75715;-23
2022/08/18 09:56:06;;;;;;;13.50;5.60;;;;;;;29.67;46.07;98535.77;104883;1272;75001;-23
2022/08/18 09:58:57;;;;;;;20.90;11.50;;;;;;;29.31;46.67;98536.52;104805;1271;74292;-23
2022/08/18 10:01:38;;;;;;;23.90;10.60;;;;;;;29.69;46.60;98531.17;104680;1271;61290;-23
2022/08/18 10:04:26;;;;;;;7.40;4.00;;;;;;;30.35;46.06;98530.55;104747;1274;61171;-24
2022/08/18 10:07:34;;;;;;;8.10;3.70;;;;;;;29.83;46.70;98531.09;104766;1272;74254;-23
2022/08/18 10:10:13;;;;;;;10.90;5.10;;;;;;;30.45;44.26;98528.83;104801;1271;75163;-23
2022/08/18 10:13:25;;;;;;;14.30;3.80;;;;;;;30.07;44.62;98526.21;104737;1272;74305;-23
2022/08/18 10:16:22;;;;;;;8.90;3.50;;;;;;;29.53;46.57;98530.67;105125;1271;61141;-23
2022/08/18 10:19:26;;;;;;;6.10;3.50;;;;;;;30.48;45.73;98533.73;104762;1274;61841;-23
2022/08/18 10:22:07;;;;;;;5.00;3.30;;;;;;;30.99;44.49;98540.29;104954;1271;75690;-23
2022/08/18 10:24:54;;;;;;;9.20;3.50;;;;;;;31.26;44.18;98539.39;104790;1271;75064;-23
2022/08/18 10:27:44;;;;;;;13.30;7.10;;;;;;;30.85;42.14;98536.92;105141;1271;74467;-23
2022/08/18 10:30:37;;;;;;;12.60;6.00;;;;;;;29.98;43.63;98529.61;105124;1271;61920;-22
2022/08/18 10:33:56;;;;;;;20.60;10.70;;;;;;;30.31;44.16;98526.02;105108;1271;61050;-23
2022/08/18 10:36:52;;;;;;;21.70;10.30;;;;;;;30.10;45.30;98529.81;104829;1271;75548;-23
2022/08/18 10:39:23;;;;;;;6.10;3.80;;;;;;;30.04;45.34;98531.90;105171;1271;75059;-23
2022/08/18 10:42:26;;;;;;;12.80;3.80;;;;;;;30.47;44.22;98534.14;105148;1271;74527;-23
2022/08/18 10:48:28;;;;;;;8.90;4.00;;;;;;;30.01;44.14;98538.85;101709;1310;600458;-23
2022/08/18 10:51:04;;;;;;;10.00;3.80;;;;;;;30.14;44.26;98539.02;103870;1286;62077;-23
2022/08/18 10:53:52;;;;;;;14.80;7.00;;;;;;;30.09;44.61;98544.47;103878;1284;62781;-23
2022/08/18 10:56:39;;;;;;;10.40;6.50;;;;;;;30.81;44.65;98540.69;103966;1281;73601;-23
2022/08/18 10:59:18;;;;;;;7.40;3.70;;;;;;;31.49;43.70;98541.65;104190;1284;76243;-23
2022/08/18 11:02:06;;;;;;;9.60;3.50;;;;;;;31.62;43.85;98548.21;103200;1284;1587719;-24
2022/08/18 11:04:42;;;;;;;22.70;8.00;;;;;;;31.71;43.12;98552.02;104293;1284;62029;-24
2022/08/18 11:07:20;;;;;;;12.70;5.60;;;;;;;31.81;42.84;98552.33;103915;1284;63074;-24
2022/08/18 11:09:49;;;;;;;18.80;7.70;;;;;;;31.39;41.01;98560.52;104288;1284;74894;-23
2022/08/18 11:12:38;;;;;;;6.10;3.10;;;;;;;31.77;41.44;98563.33;103874;1284;75905;-23
2022/08/18 11:15:15;;;;;;;10.40;4.80;;;;;;;31.38;42.66;98562.58;103723;1286;74562;-23
2022/08/18 11:18:14;;;;;;;9.30;4.30;;;;;;;30.48;42.49;98569.08;103626;1286;61906;-23
2022/08/18 11:20:42;;;;;;;9.60;4.30;;;;;;;30.05;43.27;98562.44;104038;1284;62028;-23
2022/08/18 11:23:15;;;;;;;9.50;3.30;;;;;;;30.64;42.66;98565.46;104338;1284;74699;-23
2022/08/18 11:25:43;;;;;;;9.60;4.30;;;;;;;30.23;41.92;98561.24;104628;1277;77235;-23
2022/08/18 11:28:18;;;;;;;10.20;5.40;;;;;;;30.10;43.89;98563.02;104557;1277;75407;-22
2022/08/18 11:30:49;;;;;;;21.60;9.90;;;;;;;29.74;43.11;98559.89;104400;1278;61736;-22
2022/08/18 11:33:16;;;;;;;7.90;3.60;;;;;;;29.31;44.87;98563.02;104391;1277;63174;-23
2022/08/18 11:35:57;;;;;;;9.90;4.60;;;;;;;29.76;44.00;98566.80;104342;1278;74451;-23
2022/08/18 11:38:25;;;;;;;12.70;6.70;;;;;;;30.15;44.15;98566.27;104409;1278;77231;-23
2022/08/18 11:41:11;;;;;;;7.10;3.50;;;;;;;30.50;43.99;98558.48;104553;1277;75403;-23
2022/08/18 11:43:40;;;;;;;7.70;3.00;;;;;;;30.36;45.49;98556.97;104460;1280;63116;-24
2022/08/18 11:46:24;;;;;;;;;;;;;;;30.43;45.05;98558.26;104512;1277;61813;-23
2022/08/18 11:48:58;;;;;;;13.00;3.70;;;;;;;29.60;44.88;98560.81;104486;1277;75073;-23
2022/08/18 11:51:31;;;;;;;10.80;3.00;;;;;;;30.12;43.96;98556.06;104525;1277;76943;-24
2022/08/18 11:53:59;;;;;;;7.30;3.70;;;;;;;29.85;43.58;98551.66;104477;1278;75504;-24
2022/08/18 11:56:34;;;;;;;10.80;4.20;;;;;;;29.27;45.18;98550.02;104482;1280;63084;-24
2022/08/18 11:59:23;;;;;;;11.90;3.50;;;;;;;28.60;46.49;98551.55;104447;1280;62026;-24
2022/08/18 12:02:17;;;;;;;10.10;3.80;;;;;;;28.76;46.01;98547.07;104576;1278;74910;-24
2022/08/18 12:04:44;;;;;;;13.90;6.90;;;;;;;28.76;45.65;98546.02;104510;1277;76822;-24
2022/08/18 12:07:28;;;;;;;11.50;4.30;;;;;;;29.00;46.44;98545.21;104292;1280;74285;-24
2022/08/18 12:10:19;;;;;;;5.30;3.30;;;;;;;29.06;45.12;98547.60;104285;1278;61810;-24
2022/08/18 12:12:56;;;;;;;20.00;13.20;;;;;;;29.41;45.20;98549.98;104334;1277;63159;-23
2022/08/18 12:15:30;;;;;;;18.70;10.60;;;;;;;29.71;45.07;98545.77;104448;1277;75523;-23
2022/08/18 12:18:16;;;;;;;8.60;5.30;;;;;;;29.81;44.79;98544.56;104039;1280;77137;-23
2022/08/18 12:20:56;;;;;;;9.30;3.50;;;;;;;29.59;45.36;98548.30;104206;1277;74382;-23